Huvudsida
METAR-TAF:

METAR-TAF

Flygplatser :

Phetchabun, Thailand

latitud: 16-40-33N, longitud: 101-11-42E, höjd: 137 m

Aktuellt väderrapport

Denna rapport gjordes för 10 timmar och 55 minuter sedan, klockan 11:00 UTC
Vind 4 kt från syd
Temperatur 35°C
Fuktighet 39%
Tryck 1009 hPa
Sikt 10 km eller mer
Få moln på en höjd av 3000 ft

METAR: VTPB 221100Z 18004KT 9999 FEW030 35/19 Q1009 NOSIG

Tid: 04:55 (21:55 UTC)

Väderprognos

Denna rapport gjordes för 4 timmar och 55 minuter sedan, klockan 17:00 UTC
Prognos gäller från 22 kl. 18 UTC till 23 kl. 18 UTC
Vind 5 kt från sydväst
Sikt 10 km eller mer
Få moln på en höjd av 3000 ft
Blir
från 23 kl. 01 UTC till 23 kl. 03 UTC
Vind 5 kt från syd/sydost
Blir
från 23 kl. 09 UTC till 23 kl. 11 UTC
Vind 5 kt från sydväst

TAF: VTPB 221700Z 2218/2318 22005KT 9999 FEW030 BECMG 2301/2303 16005KT BECMG 2309/2311 23005KT

Aktuella väderrapporter och prognoser från 4000 flygplatser (METAR- och TAF-rapporter).

De tillgängliga stationerna syns som gula och röda prickar på kartan.

För musen över prickarna för att se namnen på stationerna.

Klicka sedan för att få väderrapporter och prognoser.

För att ändra kartan: Klicka på de gröna knapparna med ett svart kors på för att zooma in; den gröna knappen med ett streck på för att zooma ut; eller på de gröna pilarna för angränsande kartor.


METAR-TAF: